Time;durP1;ratioP1;P1;durP2;ratioP2;P2;SDS_P1;SDS_P2;PMS_P1;PMS_P2;Temp;Humidity;BMP_temperature;BMP_pressure;BME280_temperature;BME280_humidity;BME280_pressure;Samples;Min_cycle;Max_cycle;Signal;HPM_P1;HPM_P2
2024/04/02 00:01:09;;;;;;;3.80;1.83;;;23.20;49.50;;;;;;5012517;28;20048;-64
2024/04/02 00:03:35;;;;;;;2.53;1.30;;;23.20;50.00;;;;;;5012403;28;20042;-64
2024/04/02 00:06:01;;;;;;;3.35;1.70;;;23.20;49.50;;;;;;5012533;28;20088;-64
2024/04/02 00:08:28;;;;;;;3.03;1.70;;;23.10;49.90;;;;;;4993507;28;20125;-64
2024/04/02 00:10:59;;;;;;;3.10;1.50;;;23.10;49.40;;;;;;5012531;28;20112;-64
2024/04/02 00:13:24;;;;;;;3.13;1.70;;;23.10;49.40;;;;;;5012012;28;20536;-64
2024/04/02 00:15:50;;;;;;;3.42;1.52;;;23.10;49.40;;;;;;5012365;28;20026;-64
2024/04/02 00:18:15;;;;;;;4.28;1.77;;;23.10;49.40;;;;;;5012270;28;20425;-64
2024/04/02 00:20:42;;;;;;;2.75;1.30;;;23.10;49.40;;;;;;5012358;28;20080;-64
2024/04/02 00:23:08;;;;;;;3.55;1.60;;;23.10;49.40;;;;;;5011327;28;20033;-64
2024/04/02 00:25:35;;;;;;;3.65;1.58;;;23.10;49.40;;;;;;5012255;28;20485;-64
2024/04/02 00:28:00;;;;;;;2.50;1.50;;;23.10;49.40;;;;;;5011908;28;20913;-64
2024/04/02 00:30:28;;;;;;;3.38;1.50;;;23.00;49.30;;;;;;5011942;28;20097;-64
2024/04/02 00:32:54;;;;;;;3.20;1.50;;;23.00;49.30;;;;;;5012037;28;20109;-64
2024/04/02 00:35:20;;;;;;;2.70;1.42;;;23.00;49.90;;;;;;5011834;28;20034;-64
2024/04/02 00:37:50;;;;;;;3.38;1.77;;;23.00;49.30;;;;;;5010669;28;20033;-64
2024/04/02 00:40:17;;;;;;;3.42;1.50;;;23.00;49.40;;;;;;5012307;28;20540;-64
2024/04/02 00:42:43;;;;;;;4.47;1.83;;;23.00;49.40;;;;;;5011747;28;20037;-64
2024/04/02 00:45:09;;;;;;;4.00;1.73;;;23.00;49.40;;;;;;5011921;28;20474;-64
2024/04/02 00:47:35;;;;;;;2.88;1.50;;;23.00;49.40;;;;;;5012013;28;20103;-64
2024/04/02 00:50:01;;;;;;;3.70;1.60;;;22.90;49.30;;;;;;5011827;28;20029;-64
2024/04/02 00:52:27;;;;;;;2.97;1.40;;;22.90;49.30;;;;;;5010938;28;20652;-65
2024/04/02 00:54:55;;;;;;;2.80;1.42;;;22.90;49.30;;;;;;5011581;28;20025;-64
2024/04/02 00:57:21;;;;;;;2.92;1.40;;;22.90;49.90;;;;;;5012108;28;20111;-65
2024/04/02 00:59:47;;;;;;;2.85;1.40;;;22.90;49.30;;;;;;5010223;28;20030;-64
2024/04/02 01:02:14;;;;;;;2.40;1.35;;;22.90;49.30;;;;;;5011762;28;20033;-65
2024/04/02 01:04:40;;;;;;;3.65;1.40;;;22.90;49.30;;;;;;5011557;28;20520;-65
2024/04/02 01:07:06;;;;;;;2.78;1.48;;;22.80;49.30;;;;;;5011453;28;20069;-64
2024/04/02 01:09:33;;;;;;;2.22;1.20;;;22.80;49.30;;;;;;5010851;28;20557;-65
2024/04/02 01:11:59;;;;;;;2.33;1.30;;;22.80;49.30;;;;;;5011418;28;20118;-64
2024/04/02 01:14:25;;;;;;;2.55;1.35;;;22.80;49.30;;;;;;5011050;28;20110;-64
2024/04/02 01:16:50;;;;;;;2.42;1.33;;;22.80;49.30;;;;;;5011724;28;20030;-65
2024/04/02 01:19:16;;;;;;;3.67;1.63;;;22.80;49.30;;;;;;5011646;28;20389;-64
2024/04/02 01:21:42;;;;;;;2.65;1.40;;;22.80;49.30;;;;;;5011410;28;20030;-64
2024/04/02 01:24:07;;;;;;;2.90;1.42;;;22.80;49.30;;;;;;5010146;28;20025;-64
2024/04/02 01:26:33;;;;;;;2.42;1.30;;;22.80;49.30;;;;;;5011197;28;20036;-64
2024/04/02 01:29:01;;;;;;;2.65;1.50;;;22.80;49.30;;;;;;5010931;28;20454;-65
2024/04/02 01:31:27;;;;;;;2.72;1.33;;;22.80;49.30;;;;;;5011045;28;20037;-65
2024/04/02 01:33:53;;;;;;;2.53;1.40;;;22.70;49.30;;;;;;5010991;28;20087;-64
2024/04/02 01:36:19;;;;;;;3.17;1.50;;;22.70;49.30;;;;;;5011090;28;20497;-65
2024/04/02 01:38:44;;;;;;;2.60;1.40;;;22.70;49.30;;;;;;5009305;28;20026;-65
2024/04/02 01:41:10;;;;;;;3.10;1.50;;;22.70;49.30;;;;;;5011345;28;20033;-65
2024/04/02 01:43:36;;;;;;;3.08;1.40;;;22.70;49.30;;;;;;5010911;28;20060;-65
2024/04/02 01:46:01;;;;;;;2.92;1.30;;;22.70;49.30;;;;;;5011011;28;20026;-64
2024/04/02 01:48:27;;;;;;;2.75;1.40;;;22.70;49.30;;;;;;5010783;28;20022;-65
2024/04/02 01:50:53;;;;;;;2.97;1.30;;;22.70;49.30;;;;;;5010766;28;20025;-64
2024/04/02 01:53:18;;;;;;;3.10;1.40;;;22.70;49.30;;;;;;5008758;28;20096;-64
2024/04/02 01:55:45;;;;;;;2.55;1.20;;;22.70;49.30;;;;;;5010551;28;20030;-64
2024/04/02 01:58:11;;;;;;;2.67;1.30;;;22.70;49.30;;;;;;4992546;28;20048;-64
2024/04/02 02:00:36;;;;;;;3.88;1.63;;;22.60;49.20;;;;;;5010750;28;20038;-64
2024/04/02 02:03:03;;;;;;;2.67;1.40;;;22.60;49.20;;;;;;5010497;28;20040;-61
2024/04/02 02:05:29;;;;;;;2.28;1.20;;;22.60;49.20;;;;;;5010255;28;20033;-62
2024/04/02 02:07:55;;;;;;;2.40;1.27;;;22.60;49.20;;;;;;5008794;28;20438;-63
2024/04/02 02:10:20;;;;;;;2.72;1.40;;;22.60;49.20;;;;;;5010032;28;20144;-64
2024/04/02 02:12:46;;;;;;;2.33;1.40;;;22.60;49.20;;;;;;5010373;28;20034;-64
2024/04/02 02:15:11;;;;;;;1.60;1.10;;;22.60;49.20;;;;;;5010121;28;20474;-64
2024/04/02 02:17:37;;;;;;;2.28;1.30;;;22.60;49.20;;;;;;5010233;28;20113;-65
2024/04/02 02:20:06;;;;;;;2.03;1.02;;;22.60;49.20;;;;;;5010208;28;20091;-64
2024/04/02 02:22:34;;;;;;;2.35;1.20;;;22.60;49.20;;;;;;5009776;28;20049;-64
2024/04/02 02:25:00;;;;;;;2.10;1.20;;;22.50;49.20;;;;;;5008654;28;20045;-64
2024/04/02 02:27:26;;;;;;;2.15;1.13;;;22.60;49.30;;;;;;5010019;28;20398;-64
2024/04/02 02:29:51;;;;;;;2.10;1.20;;;22.50;49.20;;;;;;5009596;28;20439;-65
2024/04/02 02:32:17;;;;;;;1.90;1.10;;;22.50;49.70;;;;;;5010002;28;20100;-65
2024/04/02 02:34:43;;;;;;;2.03;1.10;;;22.50;49.20;;;;;;5010083;28;20084;-64
2024/04/02 02:37:08;;;;;;;2.00;1.10;;;22.50;49.20;;;;;;5010128;28;20068;-65
2024/04/02 02:39:34;;;;;;;1.75;1.15;;;22.40;49.60;;;;;;5009129;28;20032;-65
2024/04/02 02:42:00;;;;;;;1.92;0.93;;;22.50;49.20;;;;;;5009341;28;20049;-64
2024/04/02 02:44:25;;;;;;;1.98;1.00;;;22.50;49.20;;;;;;5009625;28;20433;-64
2024/04/02 02:46:51;;;;;;;2.38;1.00;;;22.50;49.20;;;;;;5009817;28;20030;-64
2024/04/02 02:49:16;;;;;;;1.80;1.00;;;22.50;49.20;;;;;;5009877;28;20030;-64
2024/04/02 02:51:42;;;;;;;2.03;1.10;;;22.50;49.20;;;;;;5009611;28;20068;-64
2024/04/02 02:54:07;;;;;;;2.10;1.10;;;22.40;49.10;;;;;;5008326;28;20022;-64
2024/04/02 02:56:33;;;;;;;2.40;1.00;;;22.40;49.10;;;;;;5009694;28;20034;-64
2024/04/02 02:58:58;;;;;;;1.95;0.95;;;22.40;49.10;;;;;;5009230;28;20018;-64
2024/04/02 03:01:24;;;;;;;2.13;1.10;;;22.40;49.10;;;;;;5009452;28;20324;-64
2024/04/02 03:03:51;;;;;;;1.98;1.00;;;22.40;49.10;;;;;;5009579;28;20100;-64
2024/04/02 03:06:19;;;;;;;1.92;1.00;;;22.40;49.10;;;;;;5009433;28;20537;-64
2024/04/02 03:08:44;;;;;;;1.30;0.88;;;22.40;49.20;;;;;;5008369;28;20481;-64
2024/04/02 03:11:10;;;;;;;1.98;1.00;;;22.40;49.20;;;;;;5009781;28;20022;-64
2024/04/02 03:13:36;;;;;;;1.48;0.98;;;22.40;49.20;;;;;;5009018;28;20034;-64
2024/04/02 03:16:03;;;;;;;2.22;1.00;;;22.40;49.20;;;;;;5009501;28;20059;-64
2024/04/02 03:18:29;;;;;;;2.33;1.20;;;22.40;49.20;;;;;;5009643;28;20507;-64
2024/04/02 03:20:56;;;;;;;1.58;0.88;;;22.40;49.20;;;;;;5008987;28;20374;-64
2024/04/02 03:23:21;;;;;;;1.83;1.00;;;22.40;49.20;;;;;;5008093;28;20474;-64
2024/04/02 03:26:02;;;;;;;1.55;0.90;;;22.30;49.10;;;;;;5008899;28;20079;-64
2024/04/02 03:28:31;;;;;;;1.75;1.00;;;22.40;49.20;;;;;;4990181;28;20030;-64
2024/04/02 03:31:01;;;;;;;2.10;0.90;;;22.30;49.10;;;;;;5008971;28;20084;-64
2024/04/02 03:33:27;;;;;;;3.47;1.30;;;22.30;49.10;;;;;;5009248;28;20796;-64
2024/04/02 03:35:53;;;;;;;1.67;1.08;;;22.30;49.10;;;;;;5008892;28;20056;-64
2024/04/02 03:38:18;;;;;;;1.83;1.00;;;22.30;49.10;;;;;;5009038;28;20779;-64
2024/04/02 03:40:44;;;;;;;1.27;0.95;;;22.30;49.20;;;;;;5007893;28;20478;-64
2024/04/02 03:43:10;;;;;;;2.22;1.20;;;22.30;49.10;;;;;;5008983;28;20037;-64
2024/04/02 03:45:40;;;;;;;2.10;1.00;;;22.30;49.10;;;;;;5008770;28;20037;-64
2024/04/02 03:48:07;;;;;;;1.63;0.90;;;22.30;49.10;;;;;;5009119;28;20057;-64
2024/04/02 03:50:33;;;;;;;1.35;0.75;;;22.30;49.10;;;;;;5009022;28;20026;-64
2024/04/02 03:52:59;;;;;;;1.83;0.90;;;22.30;49.10;;;;;;5008913;28;20022;-64
2024/04/02 03:55:24;;;;;;;1.40;0.93;;;22.30;49.10;;;;;;5007768;28;20022;-64
2024/04/02 03:57:50;;;;;;;1.48;0.88;;;22.30;49.10;;;;;;5008821;28;20096;-64
2024/04/02 04:00:15;;;;;;;1.45;0.85;;;22.30;49.10;;;;;;5008428;28;20960;-64
2024/04/02 04:02:41;;;;;;;1.25;0.73;;;22.30;49.10;;;;;;5008836;28;20069;-64
2024/04/02 04:05:06;;;;;;;1.65;0.90;;;22.20;49.60;;;;;;4987909;28;20112;-64
2024/04/02 04:07:32;;;;;;;1.30;0.80;;;22.30;49.20;;;;;;5008474;28;20506;-64
2024/04/02 04:09:58;;;;;;;1.83;0.90;;;22.20;49.10;;;;;;5007766;28;20038;-64
2024/04/02 04:12:23;;;;;;;0.90;0.70;;;22.20;49.10;;;;;;5008797;28;20073;-64
2024/04/02 04:14:49;;;;;;;1.25;0.80;;;22.20;49.10;;;;;;5008364;28;20474;-64
2024/04/02 04:17:17;;;;;;;1.40;0.70;;;22.20;49.10;;;;;;5008435;28;20034;-64
2024/04/02 04:19:43;;;;;;;1.20;0.80;;;22.20;49.10;;;;;;5008749;28;20030;-64
2024/04/02 04:22:08;;;;;;;2.13;0.85;;;22.20;49.10;;;;;;5008940;28;20492;-64
2024/04/02 04:24:34;;;;;;;0.90;0.70;;;22.20;49.10;;;;;;5007519;28;20025;-65
2024/04/02 04:27:00;;;;;;;1.40;0.82;;;22.20;49.10;;;;;;5008824;28;20057;-64
2024/04/02 04:29:25;;;;;;;1.55;0.90;;;22.20;49.10;;;;;;5008161;28;20034;-64
2024/04/02 04:31:51;;;;;;;1.98;0.80;;;22.20;49.10;;;;;;5008698;28;20092;-64
2024/04/02 04:34:17;;;;;;;1.17;0.80;;;22.20;49.10;;;;;;5011543;28;20032;-64
2024/04/02 04:36:42;;;;;;;1.10;0.80;;;22.20;49.10;;;;;;5012205;28;20438;-64
2024/04/02 04:39:08;;;;;;;0.70;0.70;;;22.20;49.10;;;;;;5010770;28;20118;-64
2024/04/02 04:41:36;;;;;;;1.10;0.73;;;22.10;49.60;;;;;;5012043;28;20044;-64
2024/04/02 04:44:02;;;;;;;1.27;0.77;;;22.10;49.60;;;;;;5012062;28;20034;-64
2024/04/02 04:46:28;;;;;;;1.00;0.80;;;22.10;49.10;;;;;;5011831;28;20029;-64
2024/04/02 04:48:54;;;;;;;1.42;0.80;;;22.10;49.10;;;;;;5011932;28;20038;-64
2024/04/02 04:51:19;;;;;;;2.08;0.90;;;22.10;49.10;;;;;;5012239;28;20584;-64
2024/04/02 04:53:45;;;;;;;1.48;0.90;;;22.10;49.10;;;;;;5011767;28;20061;-64
2024/04/02 04:56:11;;;;;;;1.33;0.80;;;22.10;49.10;;;;;;5010708;28;20045;-64
2024/04/02 04:58:36;;;;;;;0.95;0.68;;;22.10;49.10;;;;;;5011557;28;20065;-64
2024/04/02 05:01:04;;;;;;;1.33;0.77;;;22.10;49.10;;;;;;5011475;28;20484;-64
2024/04/02 05:03:30;;;;;;;1.70;0.73;;;22.10;49.10;;;;;;5011591;28;20105;-64
2024/04/02 05:06:07;;;;;;;1.50;0.88;;;22.10;49.00;;;;;;5011589;28;20220;-64
2024/04/02 05:08:35;;;;;;;0.82;0.70;;;22.10;49.10;;;;;;5011404;28;20497;-64
2024/04/02 05:11:02;;;;;;;0.75;0.68;;;22.10;49.00;;;;;;5010222;28;20044;-64
2024/04/02 05:13:29;;;;;;;1.10;0.70;;;22.10;49.00;;;;;;5011354;28;20379;-64
2024/04/02 05:15:54;;;;;;;0.95;0.60;;;22.10;49.00;;;;;;5010935;28;20030;-64
2024/04/02 05:18:20;;;;;;;1.27;0.70;;;22.10;49.00;;;;;;5011284;28;20052;-64
2024/04/02 05:20:46;;;;;;;1.17;0.65;;;22.00;48.90;;;;;;5011310;28;20041;-64
2024/04/02 05:23:13;;;;;;;1.38;0.70;;;22.00;48.90;;;;;;5011125;28;20053;-64
2024/04/02 05:25:39;;;;;;;1.23;0.73;;;22.00;48.90;;;;;;4984860;28;20037;-64
2024/04/02 05:28:05;;;;;;;0.70;0.60;;;22.00;48.90;;;;;;5011105;28;20042;-64
2024/04/02 05:30:31;;;;;;;0.70;0.57;;;22.00;48.90;;;;;;5011063;28;20489;-64
2024/04/02 05:32:57;;;;;;;0.60;0.50;;;22.00;48.90;;;;;;5011517;28;20025;-64
2024/04/02 05:35:22;;;;;;;1.17;0.63;;;22.00;48.90;;;;;;5010823;28;20080;-64
2024/04/02 05:37:51;;;;;;;0.77;0.60;;;22.00;48.90;;;;;;5010606;28;20026;-64
2024/04/02 05:40:20;;;;;;;0.77;0.68;;;22.00;48.90;;;;;;5010203;28;20076;-64
2024/04/02 05:42:47;;;;;;;1.00;0.60;;;21.90;48.80;;;;;;5010854;28;20041;-62
2024/04/02 05:45:13;;;;;;;0.82;0.57;;;22.00;48.90;;;;;;5009781;28;20050;-62
2024/04/02 05:47:39;;;;;;;0.90;0.65;;;22.00;48.80;;;;;;5010804;28;20041;-63
2024/04/02 05:50:05;;;;;;;0.77;0.60;;;22.00;48.80;;;;;;5010295;28;20026;-62
2024/04/02 05:52:31;;;;;;;0.40;0.40;;;21.90;48.70;;;;;;5010491;28;20069;-63
2024/04/02 05:54:57;;;;;;;0.80;0.70;;;21.90;48.70;;;;;;5009472;28;20053;-61
2024/04/02 05:57:23;;;;;;;0.88;0.60;;;21.90;48.70;;;;;;5010747;28;20486;-62
2024/04/02 05:59:51;;;;;;;0.80;0.60;;;21.90;48.70;;;;;;5010404;28;20104;-61
2024/04/02 06:02:18;;;;;;;0.68;0.60;;;21.90;48.70;;;;;;5009991;28;20033;-63
2024/04/02 06:04:44;;;;;;;0.80;0.60;;;21.90;48.70;;;;;;5010252;28;20030;-61
2024/04/02 06:07:10;;;;;;;1.10;0.70;;;21.90;48.70;;;;;;5009943;28;20061;-62
2024/04/02 06:09:36;;;;;;;0.82;0.73;;;21.90;48.70;;;;;;5009705;28;20030;-63
2024/04/02 06:12:03;;;;;;;0.93;0.50;;;21.90;48.70;;;;;;5010412;28;20083;-61
2024/04/02 06:14:29;;;;;;;0.55;0.50;;;21.90;48.70;;;;;;5010407;28;20445;-61
2024/04/02 06:16:54;;;;;;;0.50;0.40;;;21.90;48.70;;;;;;5009997;28;20108;-62
2024/04/02 06:19:20;;;;;;;1.15;0.60;;;21.90;48.70;;;;;;5010280;28;20037;-62
2024/04/02 06:21:45;;;;;;;0.65;0.52;;;21.90;48.70;;;;;;5010441;28;20034;-61
2024/04/02 06:24:11;;;;;;;1.48;0.50;;;21.90;48.70;;;;;;5009608;28;20053;-62
2024/04/02 06:26:37;;;;;;;1.08;0.60;;;21.90;48.70;;;;;;5009320;28;20034;-61
2024/04/02 06:29:02;;;;;;;1.25;0.60;;;21.80;48.60;;;;;;5010111;28;20385;-61
2024/04/02 06:31:28;;;;;;;0.70;0.50;;;21.80;48.60;;;;;;5009857;28;20028;-61
2024/04/02 06:33:56;;;;;;;0.77;0.50;;;21.80;48.60;;;;;;5009887;28;20041;-61
2024/04/02 06:36:22;;;;;;;0.75;0.50;;;21.80;48.60;;;;;;5010046;28;20022;-63
2024/04/02 06:38:47;;;;;;;1.25;0.65;;;21.80;48.60;;;;;;5009833;28;20148;-62
2024/04/02 06:41:13;;;;;;;0.70;0.55;;;21.80;48.60;;;;;;5008878;28;20022;-61
2024/04/02 06:43:39;;;;;;;0.60;0.50;;;21.80;48.60;;;;;;5010196;28;20045;-64
2024/04/02 06:46:04;;;;;;;0.80;0.60;;;21.80;48.60;;;;;;5009511;28;20033;-64
2024/04/02 06:48:30;;;;;;;0.65;0.43;;;21.80;48.60;;;;;;5009937;28;20038;-64
2024/04/02 06:51:07;;;;;;;0.70;0.70;;;21.80;48.60;;;;;;5009714;28;20036;-64
2024/04/02 06:53:34;;;;;;;0.82;0.60;;;21.80;48.60;;;;;;5009770;28;20088;-64
2024/04/02 06:56:00;;;;;;;0.70;0.60;;;21.80;48.60;;;;;;5008013;28;20586;-64
2024/04/02 06:58:26;;;;;;;0.47;0.47;;;21.80;48.60;;;;;;5009285;28;20144;-64
2024/04/02 07:00:51;;;;;;;0.77;0.50;;;21.80;48.60;;;;;;5009471;28;20026;-64
2024/04/02 07:03:24;;;;;;;0.63;0.50;;;21.80;48.60;;;;;;5009514;28;20044;-64
2024/04/02 07:05:51;;;;;;;0.77;0.55;;;21.80;48.60;;;;;;5009293;28;20500;-64
2024/04/02 07:08:17;;;;;;;0.57;0.52;;;21.80;48.60;;;;;;5008951;28;20034;-64
2024/04/02 07:10:45;;;;;;;0.70;0.52;;;21.80;48.60;;;;;;5008462;28;20021;-64
2024/04/02 07:13:11;;;;;;;0.75;0.50;;;21.80;48.60;;;;;;5009282;28;20029;-64
2024/04/02 07:15:41;;;;;;;0.85;0.60;;;21.80;48.60;;;;;;5009136;28;20482;-64
2024/04/02 07:18:07;;;;;;;0.40;0.40;;;21.80;48.60;;;;;;5009340;28;20678;-64
2024/04/02 07:20:34;;;;;;;1.77;0.50;;;21.80;48.60;;;;;;5009381;28;20029;-64
2024/04/02 07:22:59;;;;;;;0.73;0.40;;;21.80;48.70;;;;;;5009365;28;20470;-64
2024/04/02 07:25:26;;;;;;;0.68;0.57;;;21.70;48.60;;;;;;5008214;28;20041;-65
2024/04/02 07:27:52;;;;;;;1.33;0.80;;;21.80;48.60;;;;;;5009249;28;20030;-64
2024/04/02 07:30:18;;;;;;;0.95;0.50;;;21.80;48.70;;;;;;5009191;28;20075;-65
2024/04/02 07:32:44;;;;;;;0.57;0.57;;;21.80;49.20;;;;;;5008917;28;20421;-64
2024/04/02 07:35:09;;;;;;;1.85;0.68;;;21.70;48.60;;;;;;5009028;28;20520;-64
2024/04/02 07:37:35;;;;;;;0.73;0.60;;;21.70;48.60;;;;;;5009169;28;20874;-65
2024/04/02 07:40:00;;;;;;;1.05;0.85;;;21.70;48.60;;;;;;5009014;28;20030;-64
2024/04/02 07:42:26;;;;;;;0.50;0.50;;;21.80;48.60;;;;;;5007941;28;20029;-64
2024/04/02 07:44:52;;;;;;;1.33;0.70;;;21.70;48.60;;;;;;5009146;28;20057;-64
2024/04/02 07:47:17;;;;;;;0.80;0.60;;;21.70;48.60;;;;;;5008778;28;20034;-64
2024/04/02 07:49:43;;;;;;;0.45;0.45;;;21.80;48.60;;;;;;5008801;28;20032;-64
2024/04/02 07:52:09;;;;;;;1.40;0.68;;;21.70;48.60;;;;;;5008698;28;20029;-61
2024/04/02 07:54:34;;;;;;;1.48;0.73;;;21.70;48.60;;;;;;5008721;28;20397;-61
2024/04/02 07:57:00;;;;;;;0.98;0.50;;;21.70;48.60;;;;;;5007253;28;20301;-61
2024/04/02 07:59:26;;;;;;;1.60;0.77;;;21.70;48.60;;;;;;5008852;28;20065;-61
2024/04/02 08:01:52;;;;;;;1.02;0.60;;;21.70;48.60;;;;;;5008503;28;20414;-62
2024/04/02 08:04:17;;;;;;;0.80;0.60;;;21.70;48.60;;;;;;5008878;28;20033;-63
2024/04/02 08:06:45;;;;;;;0.90;0.50;;;21.70;48.60;;;;;;5008822;28;20030;-62
2024/04/02 08:09:11;;;;;;;0.98;0.60;;;21.70;48.70;;;;;;5011442;28;20121;-63
2024/04/02 08:11:38;;;;;;;1.73;0.60;;;21.70;49.20;;;;;;5011244;28;20029;-62
2024/04/02 08:14:04;;;;;;;0.70;0.57;;;21.70;48.70;;;;;;5012216;28;20033;-61
2024/04/02 08:16:32;;;;;;;0.68;0.50;;;21.70;48.80;;;;;;5011951;28;20025;-62
2024/04/02 08:18:58;;;;;;;1.55;0.70;;;21.80;48.70;;;;;;5012070;28;20025;-61
2024/04/02 08:21:23;;;;;;;1.05;0.68;;;21.80;48.60;;;;;;5012011;28;20026;-63
2024/04/02 08:23:49;;;;;;;1.27;0.80;;;21.80;48.60;;;;;;5012377;28;20029;-62
2024/04/02 08:26:15;;;;;;;1.40;0.80;;;21.80;48.60;;;;;;5010836;28;20470;-61
2024/04/02 08:28:40;;;;;;;1.67;0.70;;;21.80;48.60;;;;;;5011990;28;20117;-62
2024/04/02 08:31:06;;;;;;;1.80;0.90;;;21.80;48.60;;;;;;5011892;28;20076;-62
2024/04/02 08:33:33;;;;;;;1.40;0.70;;;21.90;48.70;;;;;;5011875;28;20084;-62
2024/04/02 08:35:58;;;;;;;0.98;0.70;;;21.90;48.50;;;;;;5011319;28;20018;-61
2024/04/02 08:38:24;;;;;;;1.45;0.77;;;21.90;48.60;;;;;;5011954;28;20113;-62
2024/04/02 08:40:54;;;;;;;2.15;1.15;;;21.90;48.50;;;;;;5010887;28;20032;-61
2024/04/02 08:43:22;;;;;;;1.15;0.60;;;22.00;48.50;;;;;;5012036;28;20052;-62
2024/04/02 08:45:48;;;;;;;1.50;0.80;;;22.00;48.50;;;;;;5012189;28;20026;-61
2024/04/02 08:48:16;;;;;;;1.45;0.70;;;22.00;48.50;;;;;;5011775;28;20080;-61
2024/04/02 08:50:42;;;;;;;1.20;0.77;;;22.10;48.50;;;;;;5011593;28;20032;-61
2024/04/02 08:53:08;;;;;;;1.23;0.70;;;22.10;48.50;;;;;;5012447;28;20399;-59
2024/04/02 08:55:39;;;;;;;1.00;0.68;;;22.10;48.40;;;;;;5015617;28;20042;-61
2024/04/02 08:58:07;;;;;;;1.42;0.80;;;22.10;48.40;;;;;;5013016;28;20493;-62
2024/04/02 09:00:32;;;;;;;1.33;0.70;;;22.10;48.40;;;;;;5013261;28;20057;-61
2024/04/02 09:02:59;;;;;;;1.10;0.70;;;22.20;48.40;;;;;;5018969;28;20097;-64
2024/04/02 09:05:24;;;;;;;1.48;0.70;;;22.20;48.40;;;;;;5021503;28;20406;-64
2024/04/02 09:07:50;;;;;;;1.63;0.70;;;22.20;48.40;;;;;;5012261;28;20034;-64
2024/04/02 09:10:16;;;;;;;1.17;0.77;;;22.20;48.40;;;;;;5011422;28;20107;-64
2024/04/02 09:12:41;;;;;;;1.75;0.60;;;22.20;48.30;;;;;;5010313;28;20034;-63
2024/04/02 09:15:07;;;;;;;1.70;0.77;;;22.30;48.30;;;;;;5011361;28;20128;-61
2024/04/02 09:17:34;;;;;;;1.70;0.70;;;22.30;48.20;;;;;;4993392;28;20018;-61
2024/04/02 09:20:00;;;;;;;1.08;0.60;;;22.30;48.10;;;;;;5010314;28;20021;-62
2024/04/02 09:22:25;;;;;;;1.25;0.80;;;22.30;48.10;;;;;;5011404;28;20390;-62
2024/04/02 09:24:51;;;;;;;1.02;0.50;;;22.30;48.10;;;;;;5011257;28;20398;-62
2024/04/02 09:27:18;;;;;;;0.95;0.60;;;22.30;48.10;;;;;;5010460;28;20038;-61
2024/04/02 09:29:44;;;;;;;1.45;0.75;;;22.40;48.20;;;;;;5011415;28;20493;-61
2024/04/02 09:32:10;;;;;;;1.50;0.60;;;22.40;48.10;;;;;;5010879;28;20034;-62
2024/04/02 09:34:38;;;;;;;0.95;0.63;;;22.40;48.10;;;;;;5011101;28;20405;-62
2024/04/02 09:37:15;;;;;;;0.77;0.50;;;22.40;48.10;;;;;;5010976;28;20033;-63
2024/04/02 09:39:42;;;;;;;1.23;0.70;;;22.40;48.10;;;;;;5010740;28;20026;-62
2024/04/02 09:42:10;;;;;;;1.63;0.70;;;22.50;48.10;;;;;;5009960;28;20021;-61
2024/04/02 09:44:39;;;;;;;0.55;0.50;;;22.50;48.00;;;;;;5011196;28;20107;-62
2024/04/02 09:47:06;;;;;;;1.25;0.70;;;22.50;48.00;;;;;;5010536;28;20025;-62
2024/04/02 09:49:33;;;;;;;1.13;0.60;;;22.60;48.00;;;;;;5010939;28;20797;-61
2024/04/02 09:52:02;;;;;;;1.15;0.70;;;22.60;48.00;;;;;;5010634;28;20030;-62
2024/04/02 09:54:33;;;;;;;1.00;0.50;;;22.60;47.90;;;;;;5011037;28;20022;-61
2024/04/02 09:57:00;;;;;;;0.82;0.60;;;22.60;47.90;;;;;;5009418;28;20526;-62
2024/04/02 09:59:25;;;;;;;0.75;0.50;;;22.60;47.80;;;;;;5010718;28;20062;-62
2024/04/02 10:01:53;;;;;;;0.50;0.50;;;22.60;47.80;;;;;;5010200;28;20080;-62
2024/04/02 10:04:22;;;;;;;1.50;0.80;;;22.70;47.80;;;;;;5010647;28;20481;-61
2024/04/02 10:06:50;;;;;;;1.58;0.68;;;22.70;47.80;;;;;;5010209;28;20104;-61
2024/04/02 10:09:16;;;;;;;1.10;0.60;;;22.70;47.70;;;;;;5009270;28;20038;-61
2024/04/02 10:11:44;;;;;;;0.63;0.50;;;22.70;47.70;;;;;;5009480;28;20022;-64
2024/04/02 10:14:12;;;;;;;0.63;0.50;;;22.70;47.70;;;;;;5009900;28;20040;-65
2024/04/02 10:16:42;;;;;;;0.88;0.60;;;22.70;47.60;;;;;;5009982;28;20076;-65
2024/04/02 10:19:22;;;;;;;0.50;0.50;;;22.80;47.60;;;;;;5009881;28;20062;-64
2024/04/02 10:21:49;;;;;;;0.57;0.50;;;22.80;47.60;;;;;;5010372;28;20100;-62
2024/04/02 10:24:15;;;;;;;0.75;0.60;;;22.80;47.60;;;;;;5009262;28;20129;-61
2024/04/02 10:26:42;;;;;;;0.93;0.60;;;22.80;47.60;;;;;;5008698;28;20132;-61
2024/04/02 10:29:08;;;;;;;0.70;0.50;;;22.90;47.50;;;;;;5009990;28;20491;-60
2024/04/02 10:31:40;;;;;;;0.40;0.40;;;22.80;47.50;;;;;;5009875;28;20751;-64
2024/04/02 10:34:10;;;;;;;0.85;0.50;;;22.90;47.50;;;;;;5009059;28;20493;-64
2024/04/02 10:36:37;;;;;;;0.73;0.50;;;22.90;47.50;;;;;;5009869;28;20022;-64
2024/04/02 10:39:03;;;;;;;0.73;0.50;;;22.90;47.50;;;;;;5009278;28;20064;-64
2024/04/02 10:41:33;;;;;;;0.85;0.60;;;22.90;47.40;;;;;;5009810;28;20025;-64
2024/04/02 10:43:59;;;;;;;0.45;0.45;;;23.00;47.40;;;;;;5008415;28;20033;-64
2024/04/02 10:46:28;;;;;;;0.88;0.50;;;23.00;47.40;;;;;;5010076;28;20498;-63
2024/04/02 10:49:01;;;;;;;0.55;0.50;;;23.00;47.40;;;;;;5009298;28;20034;-63
2024/04/02 10:51:28;;;;;;;0.57;0.50;;;23.00;47.30;;;;;;5009226;28;20060;-64
2024/04/02 10:53:55;;;;;;;1.10;0.60;;;23.00;47.30;;;;;;5009572;28;20034;-64
2024/04/02 10:56:21;;;;;;;0.73;0.50;;;23.10;47.30;;;;;;5009756;28;20088;-64
2024/04/02 10:58:48;;;;;;;0.95;0.63;;;23.10;47.30;;;;;;5008325;28;20018;-64
2024/04/02 11:01:14;;;;;;;0.52;0.50;;;23.10;47.30;;;;;;5009560;28;20018;-64
2024/04/02 11:03:41;;;;;;;0.90;0.50;;;23.10;47.20;;;;;;5009315;28;20044;-65
2024/04/02 11:06:07;;;;;;;0.88;0.40;;;23.10;47.20;;;;;;5008784;28;20087;-64
2024/04/02 11:08:37;;;;;;;0.50;0.50;;;23.20;47.20;;;;;;5008876;28;20032;-65
2024/04/02 11:11:03;;;;;;;1.15;0.60;;;23.20;47.10;;;;;;5009773;28;20042;-64
2024/04/02 11:13:29;;;;;;;0.95;0.60;;;23.20;47.10;;;;;;5007934;28;20042;-64
2024/04/02 11:15:55;;;;;;;1.25;0.60;;;23.20;47.10;;;;;;5009483;28;20108;-64
2024/04/02 11:18:25;;;;;;;1.50;0.60;;;23.20;47.10;;;;;;5009104;28;20133;-64
2024/04/02 11:20:58;;;;;;;0.95;0.60;;;23.20;47.00;;;;;;5009315;28;20022;-65
2024/04/02 11:26:15;;;;;;;1.65;0.60;;;23.20;47.00;;;;;;5009624;28;20103;-62
2024/04/02 11:28:41;;;;;;;1.40;0.70;;;23.30;47.00;;;;;;5007771;28;20105;-62
2024/04/02 11:31:11;;;;;;;1.23;0.70;;;23.20;47.00;;;;;;5008844;28;20030;-63
2024/04/02 11:33:38;;;;;;;0.88;0.57;;;23.20;47.00;;;;;;5009167;28;20057;-64
2024/04/02 11:36:05;;;;;;;1.30;0.73;;;23.30;47.50;;;;;;5009261;28;20045;-64
2024/04/02 11:38:31;;;;;;;1.13;0.60;;;23.30;47.00;;;;;;5009180;28;20712;-64
2024/04/02 11:40:57;;;;;;;1.08;0.63;;;23.30;47.10;;;;;;5009118;28;20109;-64
2024/04/02 11:43:23;;;;;;;1.60;0.63;;;23.30;47.00;;;;;;5009524;28;20068;-62
2024/04/02 11:45:50;;;;;;;1.33;0.60;;;23.30;47.00;;;;;;5012736;28;20033;-61
2024/04/02 11:48:15;;;;;;;1.05;0.63;;;23.30;46.90;;;;;;5012877;28;20505;-61
2024/04/02 11:50:41;;;;;;;1.05;0.70;;;23.30;46.90;;;;;;5013010;28;20026;-61
2024/04/02 11:53:06;;;;;;;2.83;0.73;;;23.30;46.90;;;;;;5012941;28;20030;-64
2024/04/02 11:55:32;;;;;;;1.50;0.65;;;23.30;46.80;;;;;;5012902;28;20022;-63
2024/04/02 12:00:42;;;;;;;0.82;0.60;;;23.30;46.70;;;;;;5013177;28;20048;-63
2024/04/02 12:03:08;;;;;;;0.73;0.65;;;23.30;46.70;;;;;;5012501;28;20440;-62
2024/04/02 12:05:35;;;;;;;0.93;0.60;;;23.40;46.80;;;;;;5013007;28;20482;-62
2024/04/02 12:08:01;;;;;;;1.38;0.70;;;23.40;46.60;;;;;;5012621;28;20030;-62
2024/04/02 12:10:26;;;;;;;1.08;0.60;;;23.40;46.40;;;;;;5012695;28;20045;-63
2024/04/02 12:12:52;;;;;;;0.73;0.50;;;23.40;45.80;;;;;;5011666;28;20030;-64
2024/04/02 12:15:17;;;;;;;1.25;0.50;;;23.40;45.70;;;;;;5012241;28;20501;-62
2024/04/02 12:17:43;;;;;;;0.68;0.50;;;23.40;45.80;;;;;;5012802;28;20033;-62
2024/04/02 12:20:12;;;;;;;0.88;0.55;;;23.40;45.60;;;;;;5012303;28;20663;-63
2024/04/02 12:22:38;;;;;;;0.85;0.60;;;23.40;45.60;;;;;;5012621;28;20529;-63
2024/04/02 12:25:05;;;;;;;0.90;0.60;;;23.40;45.80;;;;;;5012143;28;20430;-61
2024/04/02 12:27:30;;;;;;;0.63;0.50;;;23.40;45.70;;;;;;5011592;28;20377;-63
2024/04/02 12:29:57;;;;;;;1.25;0.50;;;23.40;45.80;;;;;;5011988;28;20032;-63
2024/04/02 12:32:28;;;;;;;1.27;0.50;;;23.50;45.70;;;;;;5012548;28;20398;-65
2024/04/02 12:34:54;;;;;;;0.70;0.55;;;23.50;46.00;;;;;;5012184;28;20018;-65
2024/04/02 12:37:20;;;;;;;0.75;0.50;;;23.50;45.90;;;;;;5012045;28;20441;-65
2024/04/02 12:39:46;;;;;;;1.88;0.63;;;23.50;46.00;;;;;;5012168;28;20390;-66
2024/04/02 12:42:22;;;;;;;0.95;0.70;;;23.50;46.10;;;;;;5012514;28;20049;-65
2024/04/02 12:44:48;;;;;;;1.13;0.60;;;23.50;46.10;;;;;;5010351;28;20597;-65
2024/04/02 12:47:14;;;;;;;0.60;0.50;;;23.50;46.60;;;;;;5011922;28;20033;-65
2024/04/02 12:49:42;;;;;;;1.42;0.60;;;23.50;45.90;;;;;;5011619;28;20025;-65